sensor_id;sensor_type;location;lat;lon;timestamp;P1;durP1;ratioP1;P2;durP2;ratioP2
12334;SDS011;6233;51.560;9.986;2023-02-15T00:00:06;21.07;;;13.70;;
12334;SDS011;6233;51.560;9.986;2023-02-15T00:03:11;16.97;;;13.40;;
12334;SDS011;6233;51.560;9.986;2023-02-15T00:06:13;19.10;;;12.80;;
12334;SDS011;6233;51.560;9.986;2023-02-15T00:09:15;18.17;;;13.27;;
12334;SDS011;6233;51.560;9.986;2023-02-15T00:12:17;15.87;;;12.13;;
12334;SDS011;6233;51.560;9.986;2023-02-15T00:15:18;18.57;;;12.90;;
12334;SDS011;6233;51.560;9.986;2023-02-15T00:18:20;17.77;;;12.53;;
12334;SDS011;6233;51.560;9.986;2023-02-15T00:21:22;17.40;;;12.70;;
12334;SDS011;6233;51.560;9.986;2023-02-15T00:24:23;17.43;;;12.60;;
12334;SDS011;6233;51.560;9.986;2023-02-15T00:27:25;17.27;;;12.90;;
12334;SDS011;6233;51.560;9.986;2023-02-15T00:30:27;17.87;;;12.87;;
12334;SDS011;6233;51.560;9.986;2023-02-15T00:33:29;17.07;;;11.90;;
12334;SDS011;6233;51.560;9.986;2023-02-15T00:36:33;16.10;;;11.37;;
12334;SDS011;6233;51.560;9.986;2023-02-15T00:39:35;17.53;;;12.57;;
12334;SDS011;6233;51.560;9.986;2023-02-15T00:42:37;17.07;;;12.37;;
12334;SDS011;6233;51.560;9.986;2023-02-15T00:45:38;17.07;;;12.40;;
12334;SDS011;6233;51.560;9.986;2023-02-15T00:48:40;15.53;;;12.30;;
12334;SDS011;6233;51.560;9.986;2023-02-15T00:51:42;16.80;;;12.37;;
12334;SDS011;6233;51.560;9.986;2023-02-15T00:54:44;18.00;;;11.23;;
12334;SDS011;6233;51.560;9.986;2023-02-15T00:57:45;19.17;;;12.30;;
12334;SDS011;6233;51.560;9.986;2023-02-15T01:00:47;16.50;;;12.00;;
12334;SDS011;6233;51.560;9.986;2023-02-15T01:03:52;20.80;;;13.20;;
12334;SDS011;6233;51.560;9.986;2023-02-15T01:06:54;17.83;;;11.73;;
12334;SDS011;6233;51.560;9.986;2023-02-15T01:09:55;17.40;;;12.93;;
12334;SDS011;6233;51.560;9.986;2023-02-15T01:12:57;18.67;;;12.60;;
12334;SDS011;6233;51.560;9.986;2023-02-15T01:15:59;22.50;;;14.20;;
12334;SDS011;6233;51.560;9.986;2023-02-15T01:19:01;20.57;;;14.03;;
12334;SDS011;6233;51.560;9.986;2023-02-15T01:22:03;21.77;;;14.57;;
12334;SDS011;6233;51.560;9.986;2023-02-15T01:25:05;22.73;;;14.53;;
12334;SDS011;6233;51.560;9.986;2023-02-15T01:28:07;23.10;;;14.23;;
12334;SDS011;6233;51.560;9.986;2023-02-15T01:31:10;21.77;;;13.97;;
12334;SDS011;6233;51.560;9.986;2023-02-15T01:34:14;29.37;;;14.97;;
12334;SDS011;6233;51.560;9.986;2023-02-15T01:37:17;21.47;;;14.43;;
12334;SDS011;6233;51.560;9.986;2023-02-15T01:40:19;21.77;;;14.83;;
12334;SDS011;6233;51.560;9.986;2023-02-15T01:43:21;21.83;;;15.17;;
12334;SDS011;6233;51.560;9.986;2023-02-15T01:49:35;30.80;;;13.93;;
12334;SDS011;6233;51.560;9.986;2023-02-15T01:52:39;26.53;;;14.23;;
12334;SDS011;6233;51.560;9.986;2023-02-15T01:55:59;33.17;;;12.73;;
12334;SDS011;6233;51.560;9.986;2023-02-15T01:59:17;18.60;;;12.67;;
12334;SDS011;6233;51.560;9.986;2023-02-15T02:02:21;17.20;;;12.10;;
12334;SDS011;6233;51.560;9.986;2023-02-15T02:05:25;32.53;;;12.97;;
12334;SDS011;6233;51.560;9.986;2023-02-15T02:08:27;24.80;;;12.87;;
12334;SDS011;6233;51.560;9.986;2023-02-15T02:11:29;24.90;;;13.67;;
12334;SDS011;6233;51.560;9.986;2023-02-15T02:14:31;18.50;;;13.03;;
12334;SDS011;6233;51.560;9.986;2023-02-15T02:17:37;19.10;;;12.57;;
12334;SDS011;6233;51.560;9.986;2023-02-15T02:24:32;19.17;;;12.07;;
12334;SDS011;6233;51.560;9.986;2023-02-15T02:27:57;18.37;;;11.60;;
12334;SDS011;6233;51.560;9.986;2023-02-15T02:45:00;16.17;;;10.73;;
12334;SDS011;6233;51.560;9.986;2023-02-15T02:48:13;16.53;;;10.97;;
12334;SDS011;6233;51.560;9.986;2023-02-15T02:51:17;15.30;;;10.53;;
12334;SDS011;6233;51.560;9.986;2023-02-15T02:54:22;17.53;;;10.47;;
12334;SDS011;6233;51.560;9.986;2023-02-15T02:57:24;14.07;;;10.47;;
12334;SDS011;6233;51.560;9.986;2023-02-15T03:00:29;13.07;;;9.10;;
12334;SDS011;6233;51.560;9.986;2023-02-15T03:03:41;16.07;;;10.57;;
12334;SDS011;6233;51.560;9.986;2023-02-15T03:06:58;13.77;;;9.77;;
12334;SDS011;6233;51.560;9.986;2023-02-15T03:10:04;15.67;;;10.60;;
12334;SDS011;6233;51.560;9.986;2023-02-15T03:13:08;14.90;;;10.60;;
12334;SDS011;6233;51.560;9.986;2023-02-15T03:16:10;18.27;;;11.60;;
12334;SDS011;6233;51.560;9.986;2023-02-15T03:19:27;24.13;;;12.17;;
12334;SDS011;6233;51.560;9.986;2023-02-15T03:22:41;19.03;;;11.40;;
12334;SDS011;6233;51.560;9.986;2023-02-15T03:25:51;15.83;;;11.33;;
12334;SDS011;6233;51.560;9.986;2023-02-15T03:28:58;27.17;;;12.03;;
12334;SDS011;6233;51.560;9.986;2023-02-15T03:32:03;17.27;;;11.80;;
12334;SDS011;6233;51.560;9.986;2023-02-15T03:35:08;17.03;;;11.80;;
12334;SDS011;6233;51.560;9.986;2023-02-15T03:38:10;21.77;;;12.60;;
12334;SDS011;6233;51.560;9.986;2023-02-15T03:41:18;18.50;;;10.97;;
12334;SDS011;6233;51.560;9.986;2023-02-15T03:44:29;14.43;;;10.10;;
12334;SDS011;6233;51.560;9.986;2023-02-15T03:47:33;13.23;;;9.73;;
12334;SDS011;6233;51.560;9.986;2023-02-15T03:50:42;15.13;;;10.30;;
12334;SDS011;6233;51.560;9.986;2023-02-15T03:54:09;15.03;;;10.10;;
12334;SDS011;6233;51.560;9.986;2023-02-15T03:57:27;12.93;;;9.07;;
12334;SDS011;6233;51.560;9.986;2023-02-15T04:00:53;11.93;;;9.13;;
12334;SDS011;6233;51.560;9.986;2023-02-15T04:04:20;11.87;;;8.93;;
12334;SDS011;6233;51.560;9.986;2023-02-15T04:07:25;14.10;;;9.87;;
12334;SDS011;6233;51.560;9.986;2023-02-15T04:10:27;13.90;;;9.87;;
12334;SDS011;6233;51.560;9.986;2023-02-15T04:13:47;12.17;;;8.87;;
12334;SDS011;6233;51.560;9.986;2023-02-15T04:16:57;13.80;;;9.97;;
12334;SDS011;6233;51.560;9.986;2023-02-15T04:19:59;13.00;;;9.53;;
12334;SDS011;6233;51.560;9.986;2023-02-15T04:23:19;12.47;;;8.03;;
12334;SDS011;6233;51.560;9.986;2023-02-15T04:26:39;12.63;;;9.17;;
12334;SDS011;6233;51.560;9.986;2023-02-15T04:29:43;12.57;;;8.50;;
12334;SDS011;6233;51.560;9.986;2023-02-15T04:32:45;12.80;;;8.97;;
12334;SDS011;6233;51.560;9.986;2023-02-15T04:35:47;12.73;;;8.83;;
12334;SDS011;6233;51.560;9.986;2023-02-15T04:38:49;11.60;;;8.90;;
12334;SDS011;6233;51.560;9.986;2023-02-15T04:41:50;10.57;;;8.20;;
12334;SDS011;6233;51.560;9.986;2023-02-15T04:44:52;12.63;;;9.00;;
12334;SDS011;6233;51.560;9.986;2023-02-15T04:47:54;13.30;;;8.80;;
12334;SDS011;6233;51.560;9.986;2023-02-15T04:50:56;13.37;;;9.40;;
12334;SDS011;6233;51.560;9.986;2023-02-15T04:53:58;12.57;;;9.27;;
12334;SDS011;6233;51.560;9.986;2023-02-15T04:56:59;13.47;;;8.57;;
12334;SDS011;6233;51.560;9.986;2023-02-15T05:00:02;14.73;;;10.00;;
12334;SDS011;6233;51.560;9.986;2023-02-15T05:03:04;15.43;;;10.40;;
12334;SDS011;6233;51.560;9.986;2023-02-15T05:06:05;15.83;;;10.13;;
12334;SDS011;6233;51.560;9.986;2023-02-15T05:09:07;15.40;;;10.90;;
12334;SDS011;6233;51.560;9.986;2023-02-15T05:12:09;15.63;;;10.67;;
12334;SDS011;6233;51.560;9.986;2023-02-15T05:15:10;20.00;;;11.57;;
12334;SDS011;6233;51.560;9.986;2023-02-15T05:18:12;16.90;;;10.60;;
12334;SDS011;6233;51.560;9.986;2023-02-15T05:21:14;17.43;;;11.10;;
12334;SDS011;6233;51.560;9.986;2023-02-15T05:24:17;17.60;;;10.80;;
12334;SDS011;6233;51.560;9.986;2023-02-15T05:27:37;17.13;;;10.20;;
12334;SDS011;6233;51.560;9.986;2023-02-15T05:31:07;21.03;;;10.53;;
12334;SDS011;6233;51.560;9.986;2023-02-15T05:34:13;13.97;;;9.27;;
12334;SDS011;6233;51.560;9.986;2023-02-15T05:37:14;15.33;;;9.73;;
12334;SDS011;6233;51.560;9.986;2023-02-15T05:40:16;12.80;;;9.03;;
12334;SDS011;6233;51.560;9.986;2023-02-15T05:43:18;11.73;;;8.80;;
12334;SDS011;6233;51.560;9.986;2023-02-15T05:46:20;12.03;;;8.77;;
12334;SDS011;6233;51.560;9.986;2023-02-15T05:49:22;13.87;;;9.97;;
12334;SDS011;6233;51.560;9.986;2023-02-15T05:52:24;14.40;;;9.67;;
12334;SDS011;6233;51.560;9.986;2023-02-15T05:55:25;13.03;;;9.37;;
12334;SDS011;6233;51.560;9.986;2023-02-15T05:58:28;13.43;;;10.00;;
12334;SDS011;6233;51.560;9.986;2023-02-15T06:01:31;13.97;;;10.10;;
12334;SDS011;6233;51.560;9.986;2023-02-15T06:04:33;13.90;;;10.23;;
12334;SDS011;6233;51.560;9.986;2023-02-15T06:07:35;16.23;;;11.17;;
12334;SDS011;6233;51.560;9.986;2023-02-15T06:14:15;14.87;;;10.37;;
12334;SDS011;6233;51.560;9.986;2023-02-15T06:17:20;17.80;;;11.97;;
12334;SDS011;6233;51.560;9.986;2023-02-15T06:20:22;18.20;;;11.80;;
12334;SDS011;6233;51.560;9.986;2023-02-15T06:23:24;16.90;;;11.37;;
12334;SDS011;6233;51.560;9.986;2023-02-15T06:26:26;17.63;;;11.03;;
12334;SDS011;6233;51.560;9.986;2023-02-15T06:29:28;18.23;;;12.13;;
12334;SDS011;6233;51.560;9.986;2023-02-15T06:32:29;18.83;;;11.40;;
12334;SDS011;6233;51.560;9.986;2023-02-15T06:35:31;17.93;;;11.10;;
12334;SDS011;6233;51.560;9.986;2023-02-15T06:38:33;16.77;;;10.53;;
12334;SDS011;6233;51.560;9.986;2023-02-15T06:41:37;22.07;;;11.73;;
12334;SDS011;6233;51.560;9.986;2023-02-15T06:44:40;24.27;;;11.23;;
12334;SDS011;6233;51.560;9.986;2023-02-15T06:47:41;20.57;;;12.30;;
12334;SDS011;6233;51.560;9.986;2023-02-15T06:50:43;16.77;;;11.33;;
12334;SDS011;6233;51.560;9.986;2023-02-15T06:53:45;15.70;;;10.03;;
12334;SDS011;6233;51.560;9.986;2023-02-15T06:56:47;14.83;;;9.90;;
12334;SDS011;6233;51.560;9.986;2023-02-15T06:59:48;20.00;;;10.10;;
12334;SDS011;6233;51.560;9.986;2023-02-15T07:02:53;20.00;;;11.13;;
12334;SDS011;6233;51.560;9.986;2023-02-15T07:05:59;15.60;;;10.97;;
12334;SDS011;6233;51.560;9.986;2023-02-15T07:09:03;19.13;;;12.13;;
12334;SDS011;6233;51.560;9.986;2023-02-15T07:12:05;20.30;;;10.97;;
12334;SDS011;6233;51.560;9.986;2023-02-15T07:15:26;20.43;;;11.60;;
12334;SDS011;6233;51.560;9.986;2023-02-15T07:18:28;33.40;;;13.07;;
12334;SDS011;6233;51.560;9.986;2023-02-15T07:21:30;23.70;;;12.17;;
12334;SDS011;6233;51.560;9.986;2023-02-15T07:24:39;19.43;;;10.90;;
12334;SDS011;6233;51.560;9.986;2023-02-15T07:27:41;42.40;;;13.73;;
12334;SDS011;6233;51.560;9.986;2023-02-15T07:30:44;40.90;;;13.43;;
12334;SDS011;6233;51.560;9.986;2023-02-15T07:33:57;20.63;;;11.83;;
12334;SDS011;6233;51.560;9.986;2023-02-15T07:36:58;15.73;;;10.10;;
12334;SDS011;6233;51.560;9.986;2023-02-15T07:40:00;14.93;;;11.00;;
12334;SDS011;6233;51.560;9.986;2023-02-15T07:43:02;15.33;;;10.17;;
12334;SDS011;6233;51.560;9.986;2023-02-15T07:46:05;17.30;;;10.97;;
12334;SDS011;6233;51.560;9.986;2023-02-15T07:49:08;17.67;;;11.53;;
12334;SDS011;6233;51.560;9.986;2023-02-15T07:52:10;15.97;;;10.50;;
12334;SDS011;6233;51.560;9.986;2023-02-15T07:55:12;16.90;;;10.73;;
12334;SDS011;6233;51.560;9.986;2023-02-15T07:58:14;17.20;;;10.80;;
12334;SDS011;6233;51.560;9.986;2023-02-15T08:01:16;13.43;;;9.93;;
12334;SDS011;6233;51.560;9.986;2023-02-15T08:04:32;14.37;;;9.53;;
12334;SDS011;6233;51.560;9.986;2023-02-15T08:07:34;14.93;;;10.00;;
12334;SDS011;6233;51.560;9.986;2023-02-15T08:10:36;16.73;;;11.30;;
12334;SDS011;6233;51.560;9.986;2023-02-15T08:14:14;15.13;;;10.30;;
12334;SDS011;6233;51.560;9.986;2023-02-15T08:17:20;18.97;;;12.83;;
12334;SDS011;6233;51.560;9.986;2023-02-15T08:20:21;17.97;;;12.20;;
12334;SDS011;6233;51.560;9.986;2023-02-15T08:23:23;17.63;;;11.80;;
12334;SDS011;6233;51.560;9.986;2023-02-15T08:26:25;15.40;;;11.17;;
12334;SDS011;6233;51.560;9.986;2023-02-15T08:29:29;15.73;;;10.60;;
12334;SDS011;6233;51.560;9.986;2023-02-15T08:32:31;16.17;;;11.43;;
12334;SDS011;6233;51.560;9.986;2023-02-15T08:35:35;15.23;;;10.90;;
12334;SDS011;6233;51.560;9.986;2023-02-15T08:38:37;16.97;;;11.87;;
12334;SDS011;6233;51.560;9.986;2023-02-15T08:41:41;15.53;;;10.90;;
12334;SDS011;6233;51.560;9.986;2023-02-15T08:44:44;16.33;;;11.33;;
12334;SDS011;6233;51.560;9.986;2023-02-15T08:47:46;18.33;;;11.60;;
12334;SDS011;6233;51.560;9.986;2023-02-15T08:50:47;15.97;;;11.00;;
12334;SDS011;6233;51.560;9.986;2023-02-15T08:53:56;15.37;;;10.83;;
12334;SDS011;6233;51.560;9.986;2023-02-15T08:57:00;15.47;;;10.80;;
12334;SDS011;6233;51.560;9.986;2023-02-15T09:00:02;16.37;;;11.23;;
12334;SDS011;6233;51.560;9.986;2023-02-15T09:03:05;15.93;;;10.90;;
12334;SDS011;6233;51.560;9.986;2023-02-15T09:06:07;14.23;;;9.90;;
12334;SDS011;6233;51.560;9.986;2023-02-15T09:09:10;12.77;;;10.10;;
12334;SDS011;6233;51.560;9.986;2023-02-15T09:12:12;13.80;;;10.40;;
12334;SDS011;6233;51.560;9.986;2023-02-15T09:15:14;12.80;;;9.27;;
12334;SDS011;6233;51.560;9.986;2023-02-15T09:18:16;14.43;;;10.63;;
12334;SDS011;6233;51.560;9.986;2023-02-15T09:21:19;12.90;;;10.13;;
12334;SDS011;6233;51.560;9.986;2023-02-15T09:24:22;13.57;;;9.87;;
12334;SDS011;6233;51.560;9.986;2023-02-15T09:27:24;13.23;;;9.63;;
12334;SDS011;6233;51.560;9.986;2023-02-15T09:30:26;16.13;;;11.93;;
12334;SDS011;6233;51.560;9.986;2023-02-15T09:33:28;15.10;;;10.80;;
12334;SDS011;6233;51.560;9.986;2023-02-15T09:36:37;11.87;;;8.97;;
12334;SDS011;6233;51.560;9.986;2023-02-15T09:39:41;12.03;;;9.10;;
12334;SDS011;6233;51.560;9.986;2023-02-15T09:42:48;12.27;;;9.30;;
12334;SDS011;6233;51.560;9.986;2023-02-15T09:46:06;12.33;;;9.13;;
12334;SDS011;6233;51.560;9.986;2023-02-15T09:59:19;12.77;;;10.03;;
12334;SDS011;6233;51.560;9.986;2023-02-15T10:12:30;11.13;;;9.00;;
12334;SDS011;6233;51.560;9.986;2023-02-15T10:19:07;11.17;;;8.77;;
12334;SDS011;6233;51.560;9.986;2023-02-15T10:26:31;14.43;;;12.80;;
12334;SDS011;6233;51.560;9.986;2023-02-15T10:30:09;11.63;;;9.03;;
12334;SDS011;6233;51.560;9.986;2023-02-15T10:33:24;10.97;;;8.63;;
12334;SDS011;6233;51.560;9.986;2023-02-15T10:43:31;10.80;;;8.30;;
12334;SDS011;6233;51.560;9.986;2023-02-15T10:46:50;11.37;;;9.07;;
12334;SDS011;6233;51.560;9.986;2023-02-15T10:56:54;11.30;;;8.43;;
12334;SDS011;6233;51.560;9.986;2023-02-15T11:06:43;10.40;;;8.53;;
12334;SDS011;6233;51.560;9.986;2023-02-15T11:09:54;12.00;;;9.33;;
12334;SDS011;6233;51.560;9.986;2023-02-15T11:13:03;11.53;;;9.30;;
12334;SDS011;6233;51.560;9.986;2023-02-15T11:16:16;10.73;;;8.60;;
12334;SDS011;6233;51.560;9.986;2023-02-15T11:19:24;10.50;;;8.20;;
12334;SDS011;6233;51.560;9.986;2023-02-15T11:22:36;10.53;;;8.50;;
12334;SDS011;6233;51.560;9.986;2023-02-15T11:25:39;12.37;;;8.90;;
12334;SDS011;6233;51.560;9.986;2023-02-15T11:31:59;11.93;;;9.43;;
12334;SDS011;6233;51.560;9.986;2023-02-15T11:35:18;11.00;;;8.97;;
12334;SDS011;6233;51.560;9.986;2023-02-15T11:38:24;10.77;;;8.53;;
12334;SDS011;6233;51.560;9.986;2023-02-15T11:41:34;9.77;;;7.97;;
12334;SDS011;6233;51.560;9.986;2023-02-15T11:44:47;10.87;;;8.40;;
12334;SDS011;6233;51.560;9.986;2023-02-15T11:48:00;11.03;;;8.87;;
12334;SDS011;6233;51.560;9.986;2023-02-15T11:51:09;11.33;;;9.43;;
12334;SDS011;6233;51.560;9.986;2023-02-15T11:54:18;12.90;;;9.93;;
12334;SDS011;6233;51.560;9.986;2023-02-15T11:57:27;10.30;;;8.50;;
12334;SDS011;6233;51.560;9.986;2023-02-15T12:00:39;13.07;;;9.63;;
12334;SDS011;6233;51.560;9.986;2023-02-15T12:03:47;11.30;;;9.10;;
12334;SDS011;6233;51.560;9.986;2023-02-15T12:06:53;13.00;;;9.10;;
12334;SDS011;6233;51.560;9.986;2023-02-15T12:10:21;11.60;;;9.17;;
12334;SDS011;6233;51.560;9.986;2023-02-15T12:13:25;11.20;;;9.07;;
12334;SDS011;6233;51.560;9.986;2023-02-15T12:16:27;11.93;;;9.00;;
12334;SDS011;6233;51.560;9.986;2023-02-15T12:19:36;12.27;;;9.70;;
12334;SDS011;6233;51.560;9.986;2023-02-15T12:22:46;13.33;;;9.47;;
12334;SDS011;6233;51.560;9.986;2023-02-15T12:25:52;11.67;;;9.13;;
12334;SDS011;6233;51.560;9.986;2023-02-15T12:28:57;12.80;;;9.83;;
12334;SDS011;6233;51.560;9.986;2023-02-15T12:32:03;12.97;;;10.17;;
12334;SDS011;6233;51.560;9.986;2023-02-15T12:35:10;12.30;;;10.17;;
12334;SDS011;6233;51.560;9.986;2023-02-15T12:38:21;13.97;;;9.90;;
12334;SDS011;6233;51.560;9.986;2023-02-15T12:41:26;12.17;;;10.27;;
12334;SDS011;6233;51.560;9.986;2023-02-15T12:44:29;11.13;;;8.83;;
12334;SDS011;6233;51.560;9.986;2023-02-15T12:47:35;12.40;;;9.90;;
12334;SDS011;6233;51.560;9.986;2023-02-15T12:50:37;11.30;;;9.33;;
12334;SDS011;6233;51.560;9.986;2023-02-15T12:53:48;10.73;;;8.67;;
12334;SDS011;6233;51.560;9.986;2023-02-15T12:56:50;14.40;;;10.53;;
12334;SDS011;6233;51.560;9.986;2023-02-15T12:59:59;13.53;;;10.13;;
12334;SDS011;6233;51.560;9.986;2023-02-15T13:03:14;15.07;;;9.57;;
12334;SDS011;6233;51.560;9.986;2023-02-15T13:09:49;13.53;;;10.33;;
12334;SDS011;6233;51.560;9.986;2023-02-15T13:12:51;12.53;;;9.57;;
12334;SDS011;6233;51.560;9.986;2023-02-15T13:15:56;13.60;;;10.17;;
12334;SDS011;6233;51.560;9.986;2023-02-15T13:19:04;12.60;;;9.70;;
12334;SDS011;6233;51.560;9.986;2023-02-15T13:22:18;11.67;;;9.13;;
12334;SDS011;6233;51.560;9.986;2023-02-15T13:25:58;13.10;;;9.77;;
12334;SDS011;6233;51.560;9.986;2023-02-15T13:29:23;13.77;;;10.27;;
12334;SDS011;6233;51.560;9.986;2023-02-15T13:32:30;12.93;;;10.37;;
12334;SDS011;6233;51.560;9.986;2023-02-15T13:39:15;14.93;;;10.50;;
12334;SDS011;6233;51.560;9.986;2023-02-15T13:42:30;12.70;;;9.57;;
12334;SDS011;6233;51.560;9.986;2023-02-15T13:45:52;10.33;;;9.00;;
12334;SDS011;6233;51.560;9.986;2023-02-15T13:52:25;12.07;;;9.80;;
12334;SDS011;6233;51.560;9.986;2023-02-15T14:01:49;12.97;;;9.87;;
12334;SDS011;6233;51.560;9.986;2023-02-15T14:05:21;12.20;;;9.47;;
12334;SDS011;6233;51.560;9.986;2023-02-15T14:21:31;12.87;;;10.77;;
12334;SDS011;6233;51.560;9.986;2023-02-15T14:28:20;10.73;;;9.13;;
12334;SDS011;6233;51.560;9.986;2023-02-15T14:31:41;12.30;;;9.17;;
12334;SDS011;6233;51.560;9.986;2023-02-15T14:34:50;10.23;;;8.67;;
12334;SDS011;6233;51.560;9.986;2023-02-15T14:38:06;11.23;;;8.60;;
12334;SDS011;6233;51.560;9.986;2023-02-15T14:41:36;12.50;;;8.67;;
12334;SDS011;6233;51.560;9.986;2023-02-15T14:52:28;12.43;;;9.30;;
12334;SDS011;6233;51.560;9.986;2023-02-15T14:55:36;12.67;;;9.20;;
12334;SDS011;6233;51.560;9.986;2023-02-15T15:02:14;10.53;;;8.83;;
12334;SDS011;6233;51.560;9.986;2023-02-15T15:05:37;11.77;;;9.23;;
12334;SDS011;6233;51.560;9.986;2023-02-15T15:08:50;11.83;;;9.97;;
12334;SDS011;6233;51.560;9.986;2023-02-15T15:12:14;13.23;;;9.70;;
12334;SDS011;6233;51.560;9.986;2023-02-15T15:24:58;12.60;;;10.10;;
12334;SDS011;6233;51.560;9.986;2023-02-15T15:48:31;10.50;;;8.60;;
12334;SDS011;6233;51.560;9.986;2023-02-15T15:51:40;11.50;;;9.20;;
12334;SDS011;6233;51.560;9.986;2023-02-15T15:54:44;12.03;;;9.17;;
12334;SDS011;6233;51.560;9.986;2023-02-15T15:57:52;14.20;;;8.97;;
12334;SDS011;6233;51.560;9.986;2023-02-15T16:00:59;16.03;;;12.67;;
12334;SDS011;6233;51.560;9.986;2023-02-15T16:04:13;12.20;;;9.80;;
12334;SDS011;6233;51.560;9.986;2023-02-15T16:07:25;10.17;;;8.43;;
12334;SDS011;6233;51.560;9.986;2023-02-15T16:10:28;10.83;;;8.80;;
12334;SDS011;6233;51.560;9.986;2023-02-15T16:13:35;11.97;;;9.13;;
12334;SDS011;6233;51.560;9.986;2023-02-15T16:16:37;12.77;;;9.53;;
12334;SDS011;6233;51.560;9.986;2023-02-15T16:19:42;13.87;;;10.43;;
12334;SDS011;6233;51.560;9.986;2023-02-15T16:22:46;12.47;;;9.90;;
12334;SDS011;6233;51.560;9.986;2023-02-15T16:29:13;11.80;;;8.60;;
12334;SDS011;6233;51.560;9.986;2023-02-15T16:32:26;11.43;;;9.27;;
12334;SDS011;6233;51.560;9.986;2023-02-15T16:35:29;11.53;;;8.83;;
12334;SDS011;6233;51.560;9.986;2023-02-15T16:41:45;11.17;;;8.73;;
12334;SDS011;6233;51.560;9.986;2023-02-15T16:44:59;11.67;;;9.40;;
12334;SDS011;6233;51.560;9.986;2023-02-15T16:48:13;15.07;;;10.83;;
12334;SDS011;6233;51.560;9.986;2023-02-15T16:51:21;13.87;;;10.10;;
12334;SDS011;6233;51.560;9.986;2023-02-15T16:54:29;12.67;;;9.80;;
12334;SDS011;6233;51.560;9.986;2023-02-15T16:57:33;14.47;;;10.17;;
12334;SDS011;6233;51.560;9.986;2023-02-15T17:00:37;13.80;;;10.73;;
12334;SDS011;6233;51.560;9.986;2023-02-15T17:03:48;14.10;;;10.63;;
12334;SDS011;6233;51.560;9.986;2023-02-15T17:10:28;14.33;;;9.73;;
12334;SDS011;6233;51.560;9.986;2023-02-15T17:13:32;12.53;;;9.80;;
12334;SDS011;6233;51.560;9.986;2023-02-15T17:16:34;11.93;;;9.60;;
12334;SDS011;6233;51.560;9.986;2023-02-15T17:19:47;14.23;;;10.90;;
12334;SDS011;6233;51.560;9.986;2023-02-15T17:22:56;16.00;;;11.30;;
12334;SDS011;6233;51.560;9.986;2023-02-15T17:25:58;15.73;;;11.67;;
12334;SDS011;6233;51.560;9.986;2023-02-15T17:29:11;15.87;;;11.33;;
12334;SDS011;6233;51.560;9.986;2023-02-15T17:32:17;15.20;;;11.37;;
12334;SDS011;6233;51.560;9.986;2023-02-15T17:35:23;14.70;;;11.60;;
12334;SDS011;6233;51.560;9.986;2023-02-15T17:38:26;16.07;;;11.70;;
12334;SDS011;6233;51.560;9.986;2023-02-15T17:41:29;15.40;;;11.33;;
12334;SDS011;6233;51.560;9.986;2023-02-15T17:44:36;16.70;;;12.17;;
12334;SDS011;6233;51.560;9.986;2023-02-15T17:47:38;18.23;;;12.97;;
12334;SDS011;6233;51.560;9.986;2023-02-15T17:50:42;17.67;;;12.53;;
12334;SDS011;6233;51.560;9.986;2023-02-15T17:53:43;18.87;;;12.03;;
12334;SDS011;6233;51.560;9.986;2023-02-15T17:57:12;15.73;;;12.30;;
12334;SDS011;6233;51.560;9.986;2023-02-15T18:00:15;16.87;;;12.53;;
12334;SDS011;6233;51.560;9.986;2023-02-15T18:03:43;16.00;;;11.50;;
12334;SDS011;6233;51.560;9.986;2023-02-15T18:07:09;19.43;;;12.87;;
12334;SDS011;6233;51.560;9.986;2023-02-15T18:10:31;19.00;;;12.83;;
12334;SDS011;6233;51.560;9.986;2023-02-15T18:13:52;16.17;;;12.67;;
12334;SDS011;6233;51.560;9.986;2023-02-15T18:16:55;18.63;;;13.30;;
12334;SDS011;6233;51.560;9.986;2023-02-15T18:19:57;18.53;;;13.13;;
12334;SDS011;6233;51.560;9.986;2023-02-15T18:22:59;19.53;;;13.17;;
12334;SDS011;6233;51.560;9.986;2023-02-15T18:26:02;19.50;;;13.63;;
12334;SDS011;6233;51.560;9.986;2023-02-15T18:29:04;21.40;;;14.53;;
12334;SDS011;6233;51.560;9.986;2023-02-15T18:32:14;19.47;;;13.83;;
12334;SDS011;6233;51.560;9.986;2023-02-15T18:35:29;19.90;;;13.90;;
12334;SDS011;6233;51.560;9.986;2023-02-15T18:38:32;17.97;;;12.80;;
12334;SDS011;6233;51.560;9.986;2023-02-15T18:41:37;20.00;;;14.13;;
12334;SDS011;6233;51.560;9.986;2023-02-15T18:44:38;19.33;;;13.63;;
12334;SDS011;6233;51.560;9.986;2023-02-15T18:47:43;19.33;;;14.73;;
12334;SDS011;6233;51.560;9.986;2023-02-15T18:50:46;22.47;;;15.00;;
12334;SDS011;6233;51.560;9.986;2023-02-15T18:53:51;20.60;;;14.57;;
12334;SDS011;6233;51.560;9.986;2023-02-15T18:57:03;20.23;;;14.33;;
12334;SDS011;6233;51.560;9.986;2023-02-15T19:00:09;20.83;;;14.90;;
12334;SDS011;6233;51.560;9.986;2023-02-15T19:03:30;19.83;;;13.57;;
12334;SDS011;6233;51.560;9.986;2023-02-15T19:06:32;22.10;;;15.07;;
12334;SDS011;6233;51.560;9.986;2023-02-15T19:09:34;21.10;;;15.37;;
12334;SDS011;6233;51.560;9.986;2023-02-15T19:12:49;20.73;;;14.43;;
12334;SDS011;6233;51.560;9.986;2023-02-15T19:15:53;20.60;;;14.37;;
12334;SDS011;6233;51.560;9.986;2023-02-15T19:18:56;17.70;;;13.77;;
12334;SDS011;6233;51.560;9.986;2023-02-15T19:21:58;21.97;;;14.87;;
12334;SDS011;6233;51.560;9.986;2023-02-15T19:25:02;20.30;;;14.30;;
12334;SDS011;6233;51.560;9.986;2023-02-15T19:28:15;21.53;;;14.83;;
12334;SDS011;6233;51.560;9.986;2023-02-15T19:31:30;19.67;;;14.07;;
12334;SDS011;6233;51.560;9.986;2023-02-15T19:34:35;20.23;;;14.40;;
12334;SDS011;6233;51.560;9.986;2023-02-15T19:37:37;22.03;;;14.63;;
12334;SDS011;6233;51.560;9.986;2023-02-15T19:40:42;19.73;;;14.30;;
12334;SDS011;6233;51.560;9.986;2023-02-15T19:43:50;20.90;;;14.40;;
12334;SDS011;6233;51.560;9.986;2023-02-15T19:46:55;24.20;;;16.00;;
12334;SDS011;6233;51.560;9.986;2023-02-15T19:49:57;20.53;;;14.60;;
12334;SDS011;6233;51.560;9.986;2023-02-15T19:53:03;23.33;;;15.60;;
12334;SDS011;6233;51.560;9.986;2023-02-15T19:56:12;20.63;;;14.87;;
12334;SDS011;6233;51.560;9.986;2023-02-15T19:59:22;21.33;;;14.83;;
12334;SDS011;6233;51.560;9.986;2023-02-15T20:02:25;22.43;;;15.37;;
12334;SDS011;6233;51.560;9.986;2023-02-15T20:05:28;22.67;;;14.90;;
12334;SDS011;6233;51.560;9.986;2023-02-15T20:08:30;21.87;;;14.43;;
12334;SDS011;6233;51.560;9.986;2023-02-15T20:11:32;20.27;;;14.60;;
12334;SDS011;6233;51.560;9.986;2023-02-15T20:14:34;20.47;;;15.63;;
12334;SDS011;6233;51.560;9.986;2023-02-15T20:17:36;20.27;;;14.93;;
12334;SDS011;6233;51.560;9.986;2023-02-15T20:20:56;23.13;;;15.27;;
12334;SDS011;6233;51.560;9.986;2023-02-15T20:23:58;20.20;;;14.50;;
12334;SDS011;6233;51.560;9.986;2023-02-15T20:27:01;21.93;;;15.30;;
12334;SDS011;6233;51.560;9.986;2023-02-15T20:30:03;19.70;;;13.93;;
12334;SDS011;6233;51.560;9.986;2023-02-15T20:33:07;21.87;;;15.33;;
12334;SDS011;6233;51.560;9.986;2023-02-15T20:36:12;20.53;;;14.17;;
12334;SDS011;6233;51.560;9.986;2023-02-15T20:39:17;21.27;;;14.47;;
12334;SDS011;6233;51.560;9.986;2023-02-15T20:42:20;20.77;;;14.57;;
12334;SDS011;6233;51.560;9.986;2023-02-15T20:45:31;20.30;;;14.83;;
12334;SDS011;6233;51.560;9.986;2023-02-15T20:48:33;22.13;;;14.37;;
12334;SDS011;6233;51.560;9.986;2023-02-15T20:51:35;20.50;;;15.53;;
12334;SDS011;6233;51.560;9.986;2023-02-15T20:54:37;21.90;;;14.17;;
12334;SDS011;6233;51.560;9.986;2023-02-15T20:57:39;21.00;;;15.03;;
12334;SDS011;6233;51.560;9.986;2023-02-15T21:00:41;21.80;;;15.13;;
12334;SDS011;6233;51.560;9.986;2023-02-15T21:03:43;24.67;;;16.20;;
12334;SDS011;6233;51.560;9.986;2023-02-15T21:06:48;21.77;;;15.43;;
12334;SDS011;6233;51.560;9.986;2023-02-15T21:09:50;23.73;;;16.33;;
12334;SDS011;6233;51.560;9.986;2023-02-15T21:12:52;22.70;;;16.23;;